FIN6DB LGRP-EFHK
Flight info
| Callsign | FIN6DB |
|---|---|
| Flight time | N/A |
| Altitude | 34000 |
| Route | VANES UM601 ADESO UN133 KOROS DCT ATFIR DCT LOMOS DCT KENIN DCT TOXAR/N0452F350 DCT BOKSU DCT INBOV DCT GUNTA DCT SOKVA DCT ANAMA DCT KEMET Q11 INTOR |
| Aircraft | A321/M-SDE3FGHIRWY/LB1 |
Departure
| Time | N/A |
|---|---|
| Airport | Rhodes International Airport "Diagoras" (LGRP) |
Arrival
| Time | 2026-04-25 15:38 |
|---|---|
| Airport | Helsinki Vantaa Airport (EFHK) |
| Time | Latitude | Longitude | Altitude | Speed | Heading |
|---|---|---|---|---|---|
| 2026-04-25 15:22 | 59.52742 | 24.93398 | 22204 ft | 438 kts | 20° |
| 2026-04-25 15:22 | 59.55544 | 24.95766 | 21610 ft | 434 kts | 20° |
| 2026-04-25 15:22 | 59.58300 | 24.98082 | 21044 ft | 429 kts | 20° |
| 2026-04-25 15:23 | 59.61036 | 25.00372 | 20393 ft | 425 kts | 20° |
| 2026-04-25 15:23 | 59.63742 | 25.02637 | 19768 ft | 420 kts | 20° |
| 2026-04-25 15:23 | 59.66422 | 25.04884 | 19172 ft | 416 kts | 20° |
| 2026-04-25 15:23 | 59.69075 | 25.07110 | 18588 ft | 412 kts | 20° |
| 2026-04-25 15:24 | 59.71702 | 25.09314 | 18002 ft | 408 kts | 20° |
| 2026-04-25 15:24 | 59.74303 | 25.11506 | 17387 ft | 404 kts | 20° |
| 2026-04-25 15:24 | 59.76877 | 25.13679 | 16736 ft | 400 kts | 20° |
| 2026-04-25 15:24 | 59.78569 | 25.15109 | 16356 ft | 396 kts | 20° |
| 2026-04-25 15:25 | 59.81856 | 25.17899 | 16151 ft | 373 kts | 20° |
| 2026-04-25 15:25 | 59.84188 | 25.19878 | 16014 ft | 356 kts | 20° |
| 2026-04-25 15:25 | 59.86423 | 25.21777 | 15872 ft | 342 kts | 20° |
| 2026-04-25 15:25 | 59.88585 | 25.23576 | 15549 ft | 333 kts | 16° |
| 2026-04-25 15:26 | 59.90797 | 25.24676 | 15130 ft | 324 kts | 3° |
| 2026-04-25 15:26 | 59.93022 | 25.24833 | 14697 ft | 316 kts | 351° |
| 2026-04-25 15:26 | 59.95206 | 25.24498 | 14243 ft | 314 kts | 351° |
| 2026-04-25 15:26 | 59.97381 | 25.24179 | 13815 ft | 312 kts | 352° |
| 2026-04-25 15:27 | 59.99538 | 25.23875 | 13399 ft | 309 kts | 352° |
| 2026-04-25 15:27 | 60.01646 | 25.23584 | 12977 ft | 307 kts | 352° |
| 2026-04-25 15:27 | 60.05897 | 25.22995 | 12077 ft | 301 kts | 352° |
| 2026-04-25 15:28 | 60.07952 | 25.22709 | 11656 ft | 299 kts | 352° |
| 2026-04-25 15:28 | 60.10015 | 25.22413 | 11222 ft | 296 kts | 352° |
| 2026-04-25 15:28 | 60.12060 | 25.22115 | 10800 ft | 293 kts | 352° |
| 2026-04-25 15:28 | 60.14088 | 25.21816 | 10390 ft | 291 kts | 352° |
| 2026-04-25 15:29 | 60.16098 | 25.21518 | 9979 ft | 289 kts | 353° |
| 2026-04-25 15:29 | 60.18093 | 25.21224 | 9580 ft | 286 kts | 353° |
| 2026-04-25 15:29 | 60.20071 | 25.20936 | 9174 ft | 284 kts | 353° |
| 2026-04-25 15:29 | 60.22033 | 25.20654 | 8745 ft | 281 kts | 353° |
| 2026-04-25 15:30 | 60.23975 | 25.20377 | 8321 ft | 279 kts | 353° |
| 2026-04-25 15:30 | 60.25903 | 25.20104 | 7924 ft | 276 kts | 353° |
| 2026-04-25 15:30 | 60.27811 | 25.19835 | 7516 ft | 274 kts | 353° |
| 2026-04-25 15:30 | 60.29710 | 25.19842 | 7102 ft | 274 kts | 5° |
| 2026-04-25 15:31 | 60.31543 | 25.20916 | 6700 ft | 276 kts | 22° |
| 2026-04-25 15:31 | 60.33149 | 25.23037 | 6302 ft | 278 kts | 40° |
| 2026-04-25 15:31 | 60.34439 | 25.25848 | 6176 ft | 267 kts | 45° |
| 2026-04-25 15:31 | 60.35650 | 25.28571 | 6029 ft | 255 kts | 45° |
| 2026-04-25 15:32 | 60.36816 | 25.31169 | 5835 ft | 245 kts | 45° |
| 2026-04-25 15:32 | 60.37967 | 25.33702 | 5454 ft | 243 kts | 42° |
| 2026-04-25 15:32 | 60.39355 | 25.35492 | 5044 ft | 234 kts | 13° |
| 2026-04-25 15:33 | 60.42308 | 25.34416 | 4361 ft | 213 kts | 318° |
| 2026-04-25 15:33 | 60.43378 | 25.32473 | 4191 ft | 202 kts | 315° |
| 2026-04-25 15:33 | 60.44394 | 25.30608 | 4021 ft | 199 kts | 315° |
| 2026-04-25 15:33 | 60.45231 | 25.28434 | 3980 ft | 196 kts | 289° |
| 2026-04-25 15:34 | 60.45301 | 25.25705 | 3931 ft | 200 kts | 257° |
| 2026-04-25 15:34 | 60.44539 | 25.23350 | 3644 ft | 203 kts | 230° |
| 2026-04-25 15:34 | 60.43584 | 25.21249 | 3367 ft | 203 kts | 232° |
| 2026-04-25 15:34 | 60.43264 | 25.20537 | 3274 ft | 202 kts | 232° |
| 2026-04-25 15:35 | 60.40757 | 25.14953 | 2540 ft | 200 kts | 232° |
| 2026-04-25 15:35 | 60.39822 | 25.12874 | 2276 ft | 196 kts | 232° |
| 2026-04-25 15:35 | 60.38938 | 25.10916 | 1998 ft | 180 kts | 231° |
| 2026-04-25 15:36 | 60.37415 | 25.07542 | 1551 ft | 147 kts | 233° |
| 2026-04-25 15:36 | 60.36745 | 25.06053 | 1348 ft | 141 kts | 233° |
| 2026-04-25 15:36 | 60.36090 | 25.04601 | 1134 ft | 139 kts | 233° |
| 2026-04-25 15:37 | 60.35440 | 25.03156 | 915 ft | 139 kts | 232° |
| 2026-04-25 15:37 | 60.34797 | 25.01732 | 709 ft | 136 kts | 231° |
| 2026-04-25 15:37 | 60.34160 | 25.00332 | 538 ft | 135 kts | 230° |
| 2026-04-25 15:37 | 60.33535 | 24.98946 | 356 ft | 132 kts | 232° |
| 2026-04-25 15:38 | 60.32916 | 24.97589 | 196 ft | 129 kts | 232° |
| 2026-04-25 15:38 | 60.32387 | 24.96406 | 177 ft | 81 kts | 227° |
| 2026-04-25 15:38 | 60.32154 | 24.95894 | 177 ft | 32 kts | 226° |
| 2026-04-25 15:38 | 60.31974 | 24.95655 | 173 ft | 30 kts | 199° |
| 2026-04-25 15:39 | 60.31848 | 24.95590 | 170 ft | 15 kts | 185° |
| 2026-04-25 15:39 | 60.31801 | 24.95652 | 170 ft | 7 kts | 98° |
| 2026-04-25 15:39 | 60.31835 | 24.95755 | 169 ft | 11 kts | 47° |
| 2026-04-25 15:39 | 60.31891 | 24.95873 | 169 ft | 12 kts | 45° |
| 2026-04-25 15:40 | 60.31918 | 24.96027 | 168 ft | 14 kts | 113° |
| 2026-04-25 15:40 | 60.31896 | 24.96081 | 167 ft | 15 kts | 136° |
| 2026-04-25 15:40 | 60.31891 | 24.96406 | 167 ft | 14 kts | 45° |
| 2026-04-25 15:40 | 60.31952 | 24.96535 | 167 ft | 10 kts | 46° |
| 2026-04-25 15:41 | 60.31973 | 24.96614 | 167 ft | 5 kts | 99° |
| 2026-04-25 15:41 | 60.31950 | 24.96670 | 167 ft | 3 kts | 136° |
| 2026-04-25 15:41 | 60.31944 | 24.96680 | 167 ft | 0 kts | 136° |